LIPZ/VCE METAR and TAF weather

Enter ICAO airport designator
Station Type Date Time Source
LIPZ METAR 2023/02/05 23:50 UTC NOAA

LIPZ 052350Z AUTO 05005KT 9999 BKN039/// OVC057/// 03/M01 Q1035


Station Type Date Time Source
LIPZ Decoded METAR 2023/02/05 23:50 UTC NOAA

Venezia / Tessera, Italy (LIPZ) 45-30N 012-20E 6M
Feb 05, 2023 - 06:50 PM EST / 2023.02.05 2350 UTC
Wind: from the NE (050 degrees) at 6 MPH (5 KT):0
Visibility: greater than 7 mile(s):0
Sky conditions: overcast
Temperature: 37 F (3 C)
Dew Point: 30 F (-1 C)
Relative Humidity: 74%
Pressure (altimeter): 30.56 in. Hg (1035 hPa)
ob: LIPZ 052350Z AUTO 05005KT 9999 BKN039/// OVC057/// 03/M01 Q1035
cycle: 0

Station Type Date Time Source
LIPZ TAF 2023/02/05 18:21 UTC NOAA

TAF LIPZ 051700Z 0518/0624 08006KT 9999 BKN040

Example: see airport list